createdAt,value
2022-09-14T00:00:37.000Z,23.53
2022-09-14T00:03:04.000Z,23.8
2022-09-14T00:05:29.000Z,22.15
2022-09-14T00:07:54.000Z,21.42
2022-09-14T00:10:20.000Z,20.8
2022-09-14T00:12:46.000Z,21.45
2022-09-14T00:15:13.000Z,20.1
2022-09-14T00:17:38.000Z,21
2022-09-14T00:20:07.000Z,20.08
2022-09-14T00:22:31.000Z,20.45
2022-09-14T00:24:57.000Z,20.65
2022-09-14T00:27:23.000Z,19.9
2022-09-14T00:29:50.000Z,20.1
2022-09-14T00:32:14.000Z,19.65
2022-09-14T00:34:40.000Z,20.17
2022-09-14T00:37:06.000Z,18.6
2022-09-14T00:39:32.000Z,18.52
2022-09-14T00:41:58.000Z,16.97
2022-09-14T00:44:24.000Z,16.82
2022-09-14T00:46:49.000Z,16.35
2022-09-14T00:49:16.000Z,17.1
2022-09-14T00:51:41.000Z,16.7
2022-09-14T00:54:07.000Z,16.85
2022-09-14T00:59:00.000Z,18.87
2022-09-14T01:01:26.000Z,18.27
2022-09-14T01:03:52.000Z,19.35
2022-09-14T01:06:18.000Z,19.75
2022-09-14T01:08:44.000Z,19.97
2022-09-14T01:11:10.000Z,20.07
2022-09-14T01:13:36.000Z,18.93
2022-09-14T01:16:01.000Z,18.3
2022-09-14T01:18:27.000Z,16.42
2022-09-14T01:20:54.000Z,12.67
2022-09-14T01:23:19.000Z,9.8
2022-09-14T01:25:46.000Z,9.03
2022-09-14T01:28:11.000Z,8.55
2022-09-14T01:30:39.000Z,8.43
2022-09-14T01:33:02.000Z,8.2
2022-09-14T01:35:28.000Z,8.85
2022-09-14T01:37:55.000Z,8.98
2022-09-14T01:40:20.000Z,7.9
2022-09-14T01:42:46.000Z,8.63
2022-09-14T01:45:16.000Z,9.18
2022-09-14T01:47:38.000Z,8.3
2022-09-14T01:50:06.000Z,8.53
2022-09-14T01:52:29.000Z,8.57
2022-09-14T01:54:55.000Z,8.4
2022-09-14T01:57:21.000Z,8.7
2022-09-14T01:59:47.000Z,7.67
2022-09-14T02:02:14.000Z,7.85
2022-09-14T02:04:39.000Z,8.23
2022-09-14T02:07:04.000Z,8.38
2022-09-14T02:09:30.000Z,8.4
2022-09-14T02:11:56.000Z,7.97
2022-09-14T02:14:23.000Z,8.33
2022-09-14T02:16:49.000Z,6.93
2022-09-14T02:19:13.000Z,7.2
2022-09-14T02:21:40.000Z,7.53
2022-09-14T02:24:06.000Z,7.08
2022-09-14T02:26:32.000Z,6.92
2022-09-14T02:28:58.000Z,7.47
2022-09-14T02:31:25.000Z,7.37
2022-09-14T02:33:50.000Z,8.08
2022-09-14T02:36:16.000Z,8.15
2022-09-14T02:38:42.000Z,7.7
2022-09-14T02:41:09.000Z,8
2022-09-14T02:43:35.000Z,8
2022-09-14T02:45:59.000Z,8.23
2022-09-14T02:48:25.000Z,8.13
2022-09-14T02:50:51.000Z,8.03
2022-09-14T02:53:18.000Z,8.38
2022-09-14T02:55:42.000Z,8.9
2022-09-14T02:58:08.000Z,8.93
2022-09-14T03:00:38.000Z,8.9
2022-09-14T03:03:00.000Z,8.88
2022-09-14T03:05:25.000Z,8.73
2022-09-14T03:07:51.000Z,8.83
2022-09-14T03:10:17.000Z,8.98
2022-09-14T03:12:43.000Z,7.72
2022-09-14T03:15:09.000Z,7.5
2022-09-14T03:17:35.000Z,7.7
2022-09-14T03:20:01.000Z,7.7
2022-09-14T03:22:27.000Z,7.3
2022-09-14T03:24:53.000Z,7.6
2022-09-14T03:27:21.000Z,7.72
2022-09-14T03:29:43.000Z,7.45
2022-09-14T03:32:09.000Z,8.03
2022-09-14T03:34:35.000Z,8.1
2022-09-14T03:37:02.000Z,8.65
2022-09-14T03:39:27.000Z,7.97
2022-09-14T03:41:55.000Z,8.4
2022-09-14T03:44:19.000Z,8.03
2022-09-14T03:46:44.000Z,7.9
2022-09-14T03:49:11.000Z,7.42
2022-09-14T03:51:36.000Z,7.8
2022-09-14T03:54:02.000Z,7.7
2022-09-14T03:56:28.000Z,7.65
2022-09-14T03:58:53.000Z,7.6
2022-09-14T04:03:45.000Z,7.92
2022-09-14T04:06:13.000Z,7.67
2022-09-14T04:08:40.000Z,8.37
2022-09-14T04:11:05.000Z,6.9
2022-09-14T04:13:32.000Z,6.67
2022-09-14T04:15:59.000Z,6.8
2022-09-14T04:18:25.000Z,6.8
2022-09-14T04:20:49.000Z,5.72
2022-09-14T04:23:15.000Z,5.15
2022-09-14T04:25:41.000Z,5.4
2022-09-14T04:28:07.000Z,5.37
2022-09-14T04:30:34.000Z,5
2022-09-14T04:32:58.000Z,4
2022-09-14T04:35:24.000Z,4.7
2022-09-14T04:37:50.000Z,4.43
2022-09-14T04:40:16.000Z,4.6
2022-09-14T04:42:42.000Z,4.9
2022-09-14T04:45:11.000Z,4.5
2022-09-14T04:47:34.000Z,4.2
2022-09-14T04:49:59.000Z,4.5
2022-09-14T04:52:27.000Z,4.6
2022-09-14T04:54:51.000Z,4.25
2022-09-14T04:57:19.000Z,4.37
2022-09-14T04:59:45.000Z,4.17
2022-09-14T05:02:11.000Z,4.1
2022-09-14T05:04:36.000Z,4.15
2022-09-14T05:07:02.000Z,3.7
2022-09-14T05:09:28.000Z,4.1
2022-09-14T05:11:53.000Z,4
2022-09-14T05:14:19.000Z,4.12
2022-09-14T05:16:45.000Z,4.58
2022-09-14T05:19:12.000Z,4.75
2022-09-14T05:21:37.000Z,5.1
2022-09-14T05:24:04.000Z,5.1
2022-09-14T05:26:29.000Z,5.45
2022-09-14T05:28:55.000Z,4.53
2022-09-14T05:31:25.000Z,4.6
2022-09-14T05:33:46.000Z,4.4
2022-09-14T05:36:14.000Z,3.95
2022-09-14T05:38:39.000Z,4.35
2022-09-14T05:41:04.000Z,5.1
2022-09-14T05:43:29.000Z,5.3
2022-09-14T05:45:55.000Z,5.17
2022-09-14T05:48:21.000Z,5.5
2022-09-14T05:50:46.000Z,5.6
2022-09-14T05:53:14.000Z,5.63
2022-09-14T05:55:38.000Z,5.45
2022-09-14T05:58:04.000Z,5.45
2022-09-14T06:00:37.000Z,6.5
2022-09-14T06:02:55.000Z,5.33
2022-09-14T06:05:21.000Z,5.72
2022-09-14T06:07:47.000Z,5.65
2022-09-14T06:10:15.000Z,6.55
2022-09-14T06:12:39.000Z,7.03
2022-09-14T06:15:07.000Z,7.1
2022-09-14T06:17:31.000Z,7.9
2022-09-14T06:19:57.000Z,7.78
2022-09-14T06:22:23.000Z,8.8
2022-09-14T06:24:49.000Z,8.1
2022-09-14T06:27:15.000Z,8
2022-09-14T06:29:40.000Z,8.5
2022-09-14T06:32:06.000Z,8.07
2022-09-14T06:34:31.000Z,8.45
2022-09-14T06:37:01.000Z,7.72
2022-09-14T06:39:24.000Z,7.7
2022-09-14T06:41:49.000Z,7.57
2022-09-14T06:44:16.000Z,8.5
2022-09-14T06:46:41.000Z,8.43
2022-09-14T06:49:06.000Z,8.38
2022-09-14T06:51:32.000Z,7.83
2022-09-14T06:56:23.000Z,9.4
2022-09-14T06:58:49.000Z,9.83
2022-09-14T07:01:15.000Z,8.95
2022-09-14T07:03:41.000Z,9.28
2022-09-14T07:06:08.000Z,8.73
2022-09-14T07:08:33.000Z,8.27
2022-09-14T07:10:59.000Z,8.2
2022-09-14T07:13:31.000Z,9.1
2022-09-14T07:15:51.000Z,10.15
2022-09-14T07:18:25.000Z,9.98
2022-09-14T07:20:48.000Z,11.6
2022-09-14T07:23:15.000Z,10.98
2022-09-14T07:25:34.000Z,12.5
2022-09-14T07:27:59.000Z,12.33
2022-09-14T07:30:25.000Z,12.4
2022-09-14T07:32:51.000Z,12.97
2022-09-14T07:35:17.000Z,13.05
2022-09-14T07:37:42.000Z,13.43
2022-09-14T07:40:10.000Z,13.53
2022-09-14T07:42:34.000Z,13.88
2022-09-14T07:45:00.000Z,13.9
2022-09-14T07:47:27.000Z,12.63
2022-09-14T07:49:55.000Z,12.8
2022-09-14T07:52:22.000Z,13.2
2022-09-14T07:54:49.000Z,12.98
2022-09-14T07:57:14.000Z,12.5
2022-09-14T07:59:40.000Z,12.9
2022-09-14T08:02:05.000Z,13.73
2022-09-14T08:04:32.000Z,13.9
2022-09-14T08:06:58.000Z,12.73
2022-09-14T08:09:23.000Z,13.28
2022-09-14T08:11:49.000Z,11.83
2022-09-14T08:14:17.000Z,11.73
2022-09-14T08:16:42.000Z,12.3
2022-09-14T08:19:08.000Z,12.9
2022-09-14T08:21:35.000Z,11.3
2022-09-14T08:24:00.000Z,11.4
2022-09-14T08:26:24.000Z,11.5
2022-09-14T08:28:49.000Z,11.17
2022-09-14T08:31:16.000Z,11.57
2022-09-14T08:33:42.000Z,11.53
2022-09-14T08:36:08.000Z,10.28
2022-09-14T08:38:34.000Z,10.43
2022-09-14T08:41:01.000Z,10.88
2022-09-14T08:43:26.000Z,10.65
2022-09-14T08:45:52.000Z,11.78
2022-09-14T08:48:20.000Z,10.58
2022-09-14T08:50:44.000Z,9.67
2022-09-14T08:53:10.000Z,8.97
2022-09-14T08:55:39.000Z,9.03
2022-09-14T08:58:00.000Z,9.2
2022-09-14T09:00:28.000Z,9.13
2022-09-14T09:02:52.000Z,9.18
2022-09-14T09:05:18.000Z,8.83
2022-09-14T09:07:44.000Z,9.13
2022-09-14T09:10:11.000Z,8.83
2022-09-14T09:12:35.000Z,8.67
2022-09-14T09:15:02.000Z,9.23
2022-09-14T09:17:26.000Z,8.4
2022-09-14T09:19:53.000Z,8.68
2022-09-14T09:22:19.000Z,8.7
2022-09-14T09:24:45.000Z,9.43
2022-09-14T09:27:09.000Z,9.25
2022-09-14T09:29:35.000Z,11.03
2022-09-14T09:32:01.000Z,10.63
2022-09-14T09:34:27.000Z,10.77
2022-09-14T09:36:53.000Z,10.8
2022-09-14T09:39:19.000Z,10.78
2022-09-14T09:41:47.000Z,11.1
2022-09-14T09:44:09.000Z,10.53
2022-09-14T09:46:36.000Z,10.65
2022-09-14T09:49:02.000Z,10.88
2022-09-14T09:51:27.000Z,12
2022-09-14T09:53:52.000Z,12.15
2022-09-14T09:56:19.000Z,11.05
2022-09-14T09:58:44.000Z,10.23
2022-09-14T10:01:13.000Z,10.9
2022-09-14T10:03:36.000Z,10.33
2022-09-14T10:06:08.000Z,10.98
2022-09-14T10:08:34.000Z,11.83
2022-09-14T10:11:00.000Z,11.8
2022-09-14T10:13:26.000Z,12.75
2022-09-14T10:15:55.000Z,12.33
2022-09-14T10:18:17.000Z,11.73
2022-09-14T10:20:46.000Z,13.05
2022-09-14T10:23:10.000Z,13.28
2022-09-14T10:25:36.000Z,13.78
2022-09-14T10:28:04.000Z,14.2
2022-09-14T10:30:33.000Z,14.78
2022-09-14T10:32:55.000Z,14.18
2022-09-14T10:35:21.000Z,14.43
2022-09-14T10:37:48.000Z,13.5
2022-09-14T10:40:20.000Z,14.05
2022-09-14T10:42:43.000Z,14.2
2022-09-14T10:45:13.000Z,14.03
2022-09-14T10:50:01.000Z,15.13
2022-09-14T10:52:27.000Z,17.4
2022-09-14T10:54:52.000Z,17.87
2022-09-14T10:57:19.000Z,28.32
2022-09-14T10:59:44.000Z,39.05
2022-09-14T11:02:10.000Z,44.17
2022-09-14T11:04:36.000Z,55.9
2022-09-14T11:07:01.000Z,45.63
2022-09-14T11:09:30.000Z,39.42
2022-09-14T11:14:22.000Z,88.55
2022-09-14T11:16:50.000Z,45.67
2022-09-14T11:19:16.000Z,39.9
2022-09-14T11:21:42.000Z,42.33
2022-09-14T11:24:10.000Z,27.85
2022-09-14T11:26:34.000Z,27
2022-09-14T11:31:32.000Z,23.62
2022-09-14T11:33:57.000Z,22.58
2022-09-14T11:36:24.000Z,23.2
2022-09-14T11:38:50.000Z,21.6
2022-09-14T11:41:17.000Z,23.6
2022-09-14T11:43:43.000Z,24.67
2022-09-14T11:46:11.000Z,26.43
2022-09-14T11:48:36.000Z,26.8
2022-09-14T11:51:03.000Z,25.37
2022-09-14T11:53:28.000Z,22.67
2022-09-14T11:55:54.000Z,21.5
2022-09-14T11:58:19.000Z,21.93
2022-09-14T12:00:50.000Z,22.4
2022-09-14T12:03:14.000Z,20.68
2022-09-14T12:05:40.000Z,21.33
2022-09-14T12:08:16.000Z,21.73
2022-09-14T12:10:31.000Z,25.72
2022-09-14T12:12:57.000Z,30.1
2022-09-14T12:15:24.000Z,28.92
2022-09-14T12:17:50.000Z,28.2
2022-09-14T12:20:20.000Z,28.95
2022-09-14T12:22:41.000Z,28.03
2022-09-14T12:25:08.000Z,28.6
2022-09-14T12:27:33.000Z,27.62
2022-09-14T12:32:25.000Z,29.2
2022-09-14T12:34:51.000Z,28.1
2022-09-14T12:37:17.000Z,28.9
2022-09-14T12:39:44.000Z,30.97
2022-09-14T12:42:14.000Z,30.6
2022-09-14T12:44:42.000Z,30.7
2022-09-14T12:47:09.000Z,31.95
2022-09-14T12:49:36.000Z,33.13
2022-09-14T12:52:03.000Z,33.28
2022-09-14T12:54:28.000Z,33.1
2022-09-14T12:56:55.000Z,33.48
2022-09-14T12:59:21.000Z,32.27
2022-09-14T13:01:47.000Z,34.08
2022-09-14T13:04:14.000Z,33.83
2022-09-14T13:06:39.000Z,33.4
2022-09-14T13:09:05.000Z,34.27
2022-09-14T13:11:37.000Z,35.1
2022-09-14T13:14:06.000Z,32.83
2022-09-14T13:16:32.000Z,34.73
2022-09-14T13:18:57.000Z,37.08
2022-09-14T13:21:23.000Z,39.27
2022-09-14T13:23:50.000Z,41.83
2022-09-14T13:26:16.000Z,40.1
2022-09-14T13:28:42.000Z,43.35
2022-09-14T13:31:08.000Z,42.8
2022-09-14T13:33:35.000Z,41.45
2022-09-14T13:36:02.000Z,42.58
2022-09-14T13:38:28.000Z,45.52
2022-09-14T13:40:58.000Z,43.02
2022-09-14T13:43:25.000Z,43.13
2022-09-14T13:45:50.000Z,44.1
2022-09-14T13:48:23.000Z,41.28
2022-09-14T13:50:51.000Z,42.08
2022-09-14T13:53:17.000Z,41.3
2022-09-14T13:55:43.000Z,39.83
2022-09-14T13:58:09.000Z,40.92
2022-09-14T14:03:01.000Z,39.57
2022-09-14T14:05:27.000Z,39.73
2022-09-14T14:07:52.000Z,38.65
2022-09-14T14:10:23.000Z,38.9
2022-09-14T14:12:48.000Z,37.6
2022-09-14T14:15:13.000Z,37
2022-09-14T14:17:38.000Z,36.83
2022-09-14T14:20:08.000Z,36.17
2022-09-14T14:22:36.000Z,34.47
2022-09-14T14:27:23.000Z,34.48
2022-09-14T14:29:48.000Z,33.17
2022-09-14T14:32:15.000Z,30.55
2022-09-14T14:34:40.000Z,30.65
2022-09-14T14:37:07.000Z,30.57
2022-09-14T14:39:36.000Z,29.9
2022-09-14T14:42:03.000Z,29.45
2022-09-14T14:44:29.000Z,29.92
2022-09-14T14:46:58.000Z,29.7
2022-09-14T14:49:22.000Z,29.37
2022-09-14T14:51:48.000Z,28.15
2022-09-14T14:54:16.000Z,29.23
2022-09-14T14:56:43.000Z,29.73
2022-09-14T14:59:11.000Z,29.37
2022-09-14T15:01:38.000Z,29.75
2022-09-14T15:04:04.000Z,30.2
2022-09-14T15:06:31.000Z,29.23
2022-09-14T15:08:59.000Z,28.63
2022-09-14T15:11:25.000Z,27.9
2022-09-14T15:13:51.000Z,26.8
2022-09-14T15:16:17.000Z,27.2
2022-09-14T15:18:46.000Z,27.13
2022-09-14T15:21:13.000Z,27.2
2022-09-14T15:23:38.000Z,28.3
2022-09-14T15:26:05.000Z,28.45
2022-09-14T15:28:31.000Z,27.13
2022-09-14T15:30:57.000Z,28.43
2022-09-14T15:33:22.000Z,29.02
2022-09-14T15:35:49.000Z,29.7
2022-09-14T15:38:13.000Z,30.12
2022-09-14T15:40:39.000Z,31.05
2022-09-14T15:43:06.000Z,30.3
2022-09-14T15:45:31.000Z,31.2
2022-09-14T15:47:58.000Z,29.47
2022-09-14T15:50:25.000Z,31.57
2022-09-14T15:52:49.000Z,31.43
2022-09-14T15:55:15.000Z,31.1
2022-09-14T15:57:41.000Z,31.5
2022-09-14T16:00:14.000Z,31.42
2022-09-14T16:02:33.000Z,30.92
2022-09-14T16:04:58.000Z,29.67
2022-09-14T16:07:24.000Z,28.83
2022-09-14T16:09:50.000Z,29.15
2022-09-14T16:12:17.000Z,27.98
2022-09-14T16:14:42.000Z,29.03
2022-09-14T16:17:08.000Z,28.3
2022-09-14T16:19:35.000Z,28.25
2022-09-14T16:21:59.000Z,27.8
2022-09-14T16:24:28.000Z,28.73
2022-09-14T16:26:52.000Z,28.02
2022-09-14T16:29:18.000Z,27.85
2022-09-14T16:31:44.000Z,28.67
2022-09-14T16:34:11.000Z,27.3
2022-09-14T16:36:36.000Z,27.3
2022-09-14T16:39:02.000Z,27.82
2022-09-14T16:41:28.000Z,27.37
2022-09-14T16:43:54.000Z,27.32
2022-09-14T16:46:20.000Z,28.07
2022-09-14T16:48:47.000Z,28.32
2022-09-14T16:51:14.000Z,27.87
2022-09-14T16:53:40.000Z,29.9
2022-09-14T16:56:07.000Z,28.75
2022-09-14T16:58:30.000Z,29.07
2022-09-14T17:00:56.000Z,29.87
2022-09-14T17:03:22.000Z,29.2
2022-09-14T17:05:49.000Z,30.2
2022-09-14T17:08:16.000Z,29.72
2022-09-14T17:10:53.000Z,30.1
2022-09-14T17:13:06.000Z,30.77
2022-09-14T17:15:32.000Z,29.53
2022-09-14T17:17:58.000Z,30.4
2022-09-14T17:20:24.000Z,29.77
2022-09-14T17:22:50.000Z,30.87
2022-09-14T17:25:18.000Z,33.47
2022-09-14T17:27:43.000Z,33.02
2022-09-14T17:30:12.000Z,33.58
2022-09-14T17:32:35.000Z,32.63
2022-09-14T17:35:00.000Z,33.43
2022-09-14T17:37:26.000Z,33.28
2022-09-14T17:39:52.000Z,33.58
2022-09-14T17:42:18.000Z,33.25
2022-09-14T17:47:26.000Z,31.12
2022-09-14T17:49:36.000Z,31.23
2022-09-14T17:52:01.000Z,32.77
2022-09-14T17:54:27.000Z,31.75
2022-09-14T17:56:53.000Z,32.28
2022-09-14T17:59:19.000Z,31.93
2022-09-14T18:01:45.000Z,32.17
2022-09-14T18:04:11.000Z,30.83
2022-09-14T18:06:38.000Z,30.95
2022-09-14T18:09:03.000Z,30.9
2022-09-14T18:11:29.000Z,30.63
2022-09-14T18:13:55.000Z,29.9
2022-09-14T18:16:21.000Z,30.25
2022-09-14T18:18:46.000Z,28.83
2022-09-14T18:21:32.000Z,29.45
2022-09-14T18:23:58.000Z,27.73
2022-09-14T18:26:24.000Z,29.37
2022-09-14T18:28:49.000Z,30.25
2022-09-14T18:31:14.000Z,29.9
2022-09-14T18:33:40.000Z,28.43
2022-09-14T18:36:07.000Z,27.53
2022-09-14T18:38:32.000Z,26.6
2022-09-14T18:40:58.000Z,25.68
2022-09-14T18:43:24.000Z,24.57
2022-09-14T18:45:50.000Z,24.45
2022-09-14T18:48:16.000Z,23.67
2022-09-14T18:50:44.000Z,23.47
2022-09-14T18:53:09.000Z,24.85
2022-09-14T18:55:34.000Z,23.22
2022-09-14T18:57:59.000Z,23.27
2022-09-14T19:00:29.000Z,23.47
2022-09-14T19:02:51.000Z,23.85
2022-09-14T19:05:17.000Z,25.73
2022-09-14T19:07:43.000Z,28.63
2022-09-14T19:10:11.000Z,30.85
2022-09-14T19:12:35.000Z,33.35
2022-09-14T19:15:12.000Z,34.4
2022-09-14T19:17:28.000Z,35.27
2022-09-14T19:19:53.000Z,36.35
2022-09-14T19:22:18.000Z,35.65
2022-09-14T19:24:44.000Z,35.8
2022-09-14T19:29:36.000Z,39
2022-09-14T19:32:03.000Z,36.73
2022-09-14T19:34:27.000Z,35.73
2022-09-14T19:36:54.000Z,36.42
2022-09-14T19:39:19.000Z,34.8
2022-09-14T19:41:46.000Z,33.73
2022-09-14T19:44:13.000Z,32.67
2022-09-14T19:46:39.000Z,31.65
2022-09-14T19:49:05.000Z,30.4
2022-09-14T19:51:30.000Z,29.2
2022-09-14T19:53:58.000Z,28
2022-09-14T19:56:22.000Z,28.25
2022-09-14T19:58:47.000Z,26.75
2022-09-14T20:01:15.000Z,26.5
2022-09-14T20:06:14.000Z,24.95
2022-09-14T20:08:31.000Z,25.1
2022-09-14T20:10:57.000Z,24.3
2022-09-14T20:13:25.000Z,24.55
2022-09-14T20:15:50.000Z,25.47
2022-09-14T20:20:43.000Z,26.6
2022-09-14T20:23:08.000Z,25.65
2022-09-14T20:25:34.000Z,25.77
2022-09-14T20:28:00.000Z,25.6
2022-09-14T20:30:25.000Z,26.6
2022-09-14T20:32:51.000Z,27.3
2022-09-14T20:35:24.000Z,26.33
2022-09-14T20:37:43.000Z,25.87
2022-09-14T20:40:10.000Z,27
2022-09-14T20:42:38.000Z,27.55
2022-09-14T20:45:11.000Z,27.73
2022-09-14T20:47:27.000Z,27.27
2022-09-14T20:49:53.000Z,27.07
2022-09-14T20:52:18.000Z,25.9
2022-09-14T20:54:44.000Z,26.1
2022-09-14T20:57:11.000Z,25.37
2022-09-14T20:59:37.000Z,24.6
2022-09-14T21:02:02.000Z,24.1
2022-09-14T21:04:29.000Z,22.82
2022-09-14T21:06:54.000Z,22.8
2022-09-14T21:09:22.000Z,23.83
2022-09-14T21:11:46.000Z,24.5
2022-09-14T21:14:12.000Z,26.2
2022-09-14T21:16:39.000Z,26.85
2022-09-14T21:19:05.000Z,27.62
2022-09-14T21:21:31.000Z,27.13
2022-09-14T21:23:58.000Z,26.57
2022-09-14T21:26:25.000Z,24.87
2022-09-14T21:28:48.000Z,24.87
2022-09-14T21:31:15.000Z,25.05
2022-09-14T21:33:40.000Z,25.08
2022-09-14T21:36:07.000Z,25.6
2022-09-14T21:38:34.000Z,25.43
2022-09-14T21:40:58.000Z,26.65
2022-09-14T21:43:25.000Z,27.2
2022-09-14T21:45:51.000Z,26.6
2022-09-14T21:48:17.000Z,26.53
2022-09-14T21:50:44.000Z,26.55
2022-09-14T21:53:09.000Z,26.07
2022-09-14T21:55:34.000Z,25.73
2022-09-14T21:58:00.000Z,25.35
2022-09-14T22:01:10.000Z,25.15
2022-09-14T22:03:19.000Z,25.27
2022-09-14T22:05:19.000Z,25.05
2022-09-14T22:07:44.000Z,25.23
2022-09-14T22:10:12.000Z,25.3
2022-09-14T22:12:36.000Z,25.6
2022-09-14T22:15:04.000Z,26.23
2022-09-14T22:17:28.000Z,26.57
2022-09-14T22:19:56.000Z,26.57
2022-09-14T22:22:21.000Z,29.83
2022-09-14T22:24:47.000Z,32.63
2022-09-14T22:27:13.000Z,35.78
2022-09-14T22:29:39.000Z,41.48
2022-09-14T22:32:04.000Z,37.73
2022-09-14T22:34:30.000Z,37.43
2022-09-14T22:36:56.000Z,37.23
2022-09-14T22:39:22.000Z,35.2
2022-09-14T22:41:47.000Z,33.02
2022-09-14T22:44:13.000Z,32.93
2022-09-14T22:49:07.000Z,30.75
2022-09-14T22:51:31.000Z,32.65
2022-09-14T22:53:57.000Z,34.75
2022-09-14T22:56:23.000Z,35.67
2022-09-14T22:58:48.000Z,34.67
2022-09-14T23:01:15.000Z,34.53
2022-09-14T23:03:41.000Z,34.2
2022-09-14T23:06:07.000Z,34.23
2022-09-14T23:08:33.000Z,32.9
2022-09-14T23:13:25.000Z,32.15
2022-09-14T23:15:51.000Z,34.2
2022-09-14T23:18:21.000Z,32.9
2022-09-14T23:20:45.000Z,34.53
2022-09-14T23:23:08.000Z,34.27
2022-09-14T23:25:37.000Z,32.65
2022-09-14T23:28:00.000Z,32.4
2022-09-14T23:30:31.000Z,31.4
2022-09-14T23:32:52.000Z,30.87
2022-09-14T23:35:18.000Z,29.67
2022-09-14T23:37:45.000Z,28.77
2022-09-14T23:40:14.000Z,28.83
2022-09-14T23:42:36.000Z,26.73
2022-09-14T23:45:05.000Z,26.7
2022-09-14T23:47:28.000Z,27.1
2022-09-14T23:49:55.000Z,26.65
2022-09-14T23:52:22.000Z,26.93
2022-09-14T23:54:46.000Z,26.3
2022-09-14T23:57:12.000Z,27.07
2022-09-14T23:59:38.000Z,27.05
